Time;durP1;ratioP1;P1;durP2;ratioP2;P2;SDS_P1;SDS_P2;PMS_P1;PMS_P2;Temp;Humidity;BMP_temperature;BMP_pressure;BME280_temperature;BME280_humidity;BME280_pressure;Samples;Min_cycle;Max_cycle;Signal;HPM_P1;HPM_P2
2021/12/18 00:01:20;;;;;;;18.83;7.67;;;;;;;;;;4972173;28;20030;-75
2021/12/18 00:03:45;;;;;;;16.10;7.13;;;;;;;;;;4969627;28;20031;-75
2021/12/18 00:06:11;;;;;;;21.80;7.10;;;;;;;;;;4970792;28;20038;-74
2021/12/18 00:08:38;;;;;;;15.17;6.90;;;;;;;;;;4970611;28;20373;-75
2021/12/18 00:11:04;;;;;;;18.83;8.13;;;;;;;;;;4969268;28;20031;-74
2021/12/18 00:13:29;;;;;;;19.83;8.17;;;;;;;;;;4968914;28;20027;-74
2021/12/18 00:15:55;;;;;;;20.27;7.73;;;;;;;;;;4970281;28;20085;-74
2021/12/18 00:18:21;;;;;;;16.67;7.37;;;;;;;;;;4970389;28;20396;-72
2021/12/18 00:20:47;;;;;;;21.80;7.87;;;;;;;;;;4985398;28;20061;-74
2021/12/18 00:23:13;;;;;;;21.57;7.33;;;;;;;;;;4970914;28;20098;-75
2021/12/18 00:25:39;;;;;;;21.83;8.63;;;;;;;;;;4968900;28;20458;-73
2021/12/18 00:28:04;;;;;;;28.87;8.23;;;;;;;;;;4970650;28;20041;-74
2021/12/18 00:30:30;;;;;;;20.80;8.47;;;;;;;;;;4968722;28;20039;-74
2021/12/18 00:32:56;;;;;;;25.37;10.23;;;;;;;;;;4970683;28;20027;-74
2021/12/18 00:35:22;;;;;;;24.27;9.20;;;;;;;;;;4981530;28;20035;-73
2021/12/18 00:37:47;;;;;;;23.77;7.10;;;;;;;;;;4969133;28;20027;-75
2021/12/18 00:40:21;;;;;;;16.87;7.07;;;;;;;;;;4970610;28;20081;-74
2021/12/18 00:42:56;;;;;;;25.00;8.00;;;;;;;;;;4970260;28;20040;-75
2021/12/18 00:45:22;;;;;;;17.60;7.10;;;;;;;;;;4971757;28;20023;-75
2021/12/18 00:47:48;;;;;;;21.13;7.73;;;;;;;;;;4973039;28;20547;-73
2021/12/18 00:50:21;;;;;;;16.37;7.63;;;;;;;;;;4974341;28;20034;-74
2021/12/18 00:52:47;;;;;;;21.93;7.80;;;;;;;;;;4973039;28;20459;-74
2021/12/18 00:55:16;;;;;;;22.87;7.97;;;;;;;;;;4973953;28;20478;-74
2021/12/18 00:57:44;;;;;;;19.67;7.43;;;;;;;;;;4973655;28;20287;-74
2021/12/18 01:00:13;;;;;;;22.20;7.47;;;;;;;;;;4972567;28;20050;-74
2021/12/18 01:02:42;;;;;;;22.87;7.30;;;;;;;;;;4973557;28;20034;-74
2021/12/18 01:05:08;;;;;;;20.87;8.77;;;;;;;;;;4973793;28;20023;-74
2021/12/18 01:07:34;;;;;;;21.50;8.67;;;;;;;;;;4972227;28;20031;-74
2021/12/18 01:12:39;;;;;;;22.77;9.30;;;;;;;;;;4973776;28;20023;-74
2021/12/18 01:22:48;;;;;;;18.63;8.60;;;;;;;;;;4973465;28;20030;-73
2021/12/18 01:25:19;;;;;;;20.85;8.95;;;;;;;;;;4973596;28;20242;-74
2021/12/18 01:27:45;;;;;;;15.13;7.93;;;;;;;;;;4972297;28;20034;-73
2021/12/18 01:30:13;;;;;;;22.10;9.03;;;;;;;;;;4973204;28;20070;-74
2021/12/18 01:32:40;;;;;;;22.00;9.07;;;;;;;;;;4972934;28;20119;-74
2021/12/18 01:35:06;;;;;;;24.50;9.00;;;;;;;;;;4972915;28;20116;-74
2021/12/18 01:37:31;;;;;;;21.90;9.40;;;;;;;;;;4972858;28;20031;-73
2021/12/18 01:39:57;;;;;;;23.80;9.57;;;;;;;;;;4971816;28;20599;-74
2021/12/18 01:53:11;;;;;;;27.00;10.10;;;;;;;;;;4973263;28;20033;-74
2021/12/18 01:55:40;;;;;;;17.73;8.53;;;;;;;;;;4971117;28;20165;-74
2021/12/18 01:58:07;;;;;;;23.00;9.90;;;;;;;;;;4970146;28;20078;-74
2021/12/18 02:00:40;;;;;;;20.80;8.70;;;;;;;;;;4972465;28;20018;-74
2021/12/18 02:03:06;;;;;;;21.83;9.10;;;;;;;;;;4971425;28;20030;-73
2021/12/18 02:05:31;;;;;;;20.23;8.73;;;;;;;;;;4971333;28;20037;-73
2021/12/18 02:07:58;;;;;;;18.50;8.87;;;;;;;;;;4972644;28;20490;-75
2021/12/18 02:10:28;;;;;;;22.33;9.07;;;;;;;;;;4972786;28;20019;-74
2021/12/18 02:20:58;;;;;;;25.45;9.57;;;;;;;;;;4972870;28;20524;-74
2021/12/18 02:23:23;;;;;;;21.07;8.60;;;;;;;;;;4971061;28;20422;-73
2021/12/18 02:25:49;;;;;;;26.23;8.97;;;;;;;;;;4970865;28;20125;-75
2021/12/18 02:28:21;;;;;;;25.63;9.67;;;;;;;;;;4972943;28;20037;-74
2021/12/18 02:30:48;;;;;;;20.00;8.32;;;;;;;;;;4973441;28;20427;-73
2021/12/18 02:33:14;;;;;;;25.13;10.20;;;;;;;;;;4973024;28;20034;-73
2021/12/18 02:35:46;;;;;;;22.43;8.90;;;;;;;;;;4971019;28;20077;-74
2021/12/18 02:38:20;;;;;;;20.30;8.93;;;;;;;;;;4972271;28;20066;-73
2021/12/18 02:41:02;;;;;;;21.13;9.03;;;;;;;;;;4973907;28;20023;-74
2021/12/18 02:43:31;;;;;;;26.43;10.93;;;;;;;;;;4976010;28;20019;-73
2021/12/18 02:45:59;;;;;;;19.97;9.00;;;;;;;;;;4975258;28;20042;-73
2021/12/18 02:48:27;;;;;;;19.83;8.97;;;;;;;;;;4972495;28;20446;-74
2021/12/18 02:50:52;;;;;;;20.30;9.03;;;;;;;;;;4971819;28;20046;-74
2021/12/18 02:53:18;;;;;;;23.30;8.93;;;;;;;;;;4970945;28;20023;-74
2021/12/18 02:55:44;;;;;;;21.03;9.13;;;;;;;;;;4970483;28;20442;-73
2021/12/18 02:58:09;;;;;;;25.83;9.43;;;;;;;;;;4970557;28;20023;-73
2021/12/18 03:00:35;;;;;;;18.40;8.17;;;;;;;;;;4971621;28;20026;-73
2021/12/18 03:03:06;;;;;;;22.00;9.20;;;;;;;;;;4970481;28;20391;-74
2021/12/18 03:05:38;;;;;;;22.03;9.27;;;;;;;;;;4971513;28;20031;-73
2021/12/18 03:08:12;;;;;;;25.43;9.20;;;;;;;;;;4969794;28;20061;-73
2021/12/18 03:19:13;;;;;;;22.07;9.33;;;;;;;;;;4971909;28;20395;-73
2021/12/18 03:24:41;;;;;;;24.20;8.87;;;;;;;;;;4978908;28;20057;-73
2021/12/18 03:27:07;;;;;;;22.17;9.47;;;;;;;;;;4970446;28;20143;-74
2021/12/18 03:29:33;;;;;;;22.70;9.50;;;;;;;;;;4969929;28;20037;-73
2021/12/18 03:31:59;;;;;;;18.33;8.50;;;;;;;;;;4971900;28;20041;-73
2021/12/18 03:34:25;;;;;;;20.80;8.97;;;;;;;;;;4970592;28;20065;-74
2021/12/18 03:36:51;;;;;;;22.80;10.63;;;;;;;;;;4969308;28;20023;-74
2021/12/18 03:39:17;;;;;;;25.17;10.07;;;;;;;;;;4969654;28;20051;-74
2021/12/18 03:41:44;;;;;;;24.67;9.63;;;;;;;;;;4971047;28;20030;-74
2021/12/18 03:44:09;;;;;;;28.67;10.27;;;;;;;;;;4969544;28;20030;-73
2021/12/18 03:46:35;;;;;;;28.57;10.03;;;;;;;;;;4969638;28;20019;-74
2021/12/18 03:49:01;;;;;;;26.43;10.33;;;;;;;;;;4969622;28;20116;-73
2021/12/18 03:51:26;;;;;;;22.60;8.90;;;;;;;;;;4985620;28;20046;-74
2021/12/18 03:53:52;;;;;;;27.83;9.73;;;;;;;;;;4970683;28;20313;-74
2021/12/18 03:56:18;;;;;;;25.70;9.70;;;;;;;;;;4969326;28;20027;-72
2021/12/18 03:58:44;;;;;;;27.17;11.40;;;;;;;;;;4970744;28;20583;-74
2021/12/18 04:01:09;;;;;;;31.07;10.83;;;;;;;;;;4970545;28;20109;-73
2021/12/18 04:03:35;;;;;;;25.50;10.03;;;;;;;;;;4969264;28;20082;-72
2021/12/18 04:06:00;;;;;;;23.50;9.70;;;;;;;;;;4969142;28;20022;-74
2021/12/18 04:08:25;;;;;;;25.47;11.27;;;;;;;;;;4970852;28;20363;-73
2021/12/18 04:10:51;;;;;;;31.87;9.53;;;;;;;;;;4969137;28;20448;-73
2021/12/18 04:13:17;;;;;;;28.43;10.30;;;;;;;;;;4970609;28;20055;-74
2021/12/18 04:15:42;;;;;;;24.93;9.30;;;;;;;;;;4970649;28;20034;-73
2021/12/18 04:18:08;;;;;;;23.40;9.70;;;;;;;;;;4969342;28;20109;-73
2021/12/18 04:20:34;;;;;;;22.77;8.10;;;;;;;;;;4971853;28;20091;-72
2021/12/18 04:22:59;;;;;;;25.80;8.60;;;;;;;;;;4974766;28;20439;-74
2021/12/18 04:25:25;;;;;;;21.17;9.73;;;;;;;;;;4974722;28;20030;-73
2021/12/18 04:27:51;;;;;;;23.30;9.57;;;;;;;;;;4974505;28;20031;-73
2021/12/18 04:30:16;;;;;;;23.60;9.43;;;;;;;;;;4974343;28;20113;-73
2021/12/18 04:32:42;;;;;;;27.10;9.73;;;;;;;;;;4973035;28;20031;-74
2021/12/18 04:35:08;;;;;;;26.77;8.90;;;;;;;;;;4972856;28;20037;-73
2021/12/18 04:37:33;;;;;;;23.67;10.23;;;;;;;;;;4974283;28;20295;-73
2021/12/18 04:39:59;;;;;;;21.83;10.00;;;;;;;;;;4973753;28;20479;-74
2021/12/18 04:42:24;;;;;;;27.13;10.97;;;;;;;;;;4974352;28;20039;-73
2021/12/18 04:44:50;;;;;;;29.43;10.57;;;;;;;;;;4974162;28;20034;-73
2021/12/18 04:47:16;;;;;;;23.43;9.90;;;;;;;;;;4972754;28;20147;-73
2021/12/18 04:49:41;;;;;;;28.17;11.13;;;;;;;;;;4974128;28;20093;-72
2021/12/18 04:52:07;;;;;;;26.73;10.57;;;;;;;;;;4974675;28;20026;-74
2021/12/18 04:54:33;;;;;;;22.43;9.57;;;;;;;;;;4989085;28;20474;-73
2021/12/18 04:56:59;;;;;;;29.23;11.67;;;;;;;;;;4972485;28;20023;-73
2021/12/18 04:59:24;;;;;;;25.40;9.97;;;;;;;;;;4974621;28;20039;-76
2021/12/18 05:01:52;;;;;;;29.23;10.77;;;;;;;;;;4973369;28;20038;-72
2021/12/18 05:04:19;;;;;;;24.23;10.93;;;;;;;;;;4972798;28;20026;-74
2021/12/18 05:06:46;;;;;;;28.07;11.30;;;;;;;;;;4972374;28;20408;-73
2021/12/18 05:09:14;;;;;;;25.10;10.43;;;;;;;;;;4973813;28;20034;-74
2021/12/18 05:11:41;;;;;;;30.87;12.10;;;;;;;;;;4973643;28;20130;-73
2021/12/18 05:14:07;;;;;;;29.23;11.10;;;;;;;;;;4972499;28;20026;-74
2021/12/18 05:16:33;;;;;;;27.57;11.03;;;;;;;;;;4956042;28;20415;-73
2021/12/18 05:18:58;;;;;;;29.43;12.00;;;;;;;;;;4973498;28;20037;-74
2021/12/18 05:21:24;;;;;;;29.07;10.50;;;;;;;;;;4988367;28;20034;-74
2021/12/18 05:23:49;;;;;;;30.13;10.67;;;;;;;;;;4973021;28;20035;-74
2021/12/18 05:26:15;;;;;;;36.10;12.03;;;;;;;;;;4988139;28;20085;-73
2021/12/18 05:28:41;;;;;;;28.93;11.67;;;;;;;;;;4973131;28;20041;-74
2021/12/18 05:31:09;;;;;;;37.40;12.77;;;;;;;;;;4971755;28;20026;-73
2021/12/18 05:33:35;;;;;;;31.53;11.63;;;;;;;;;;4973156;28;20472;-74
2021/12/18 05:36:03;;;;;;;22.73;10.23;;;;;;;;;;4971931;28;20101;-74
2021/12/18 05:38:28;;;;;;;27.97;12.70;;;;;;;;;;4971532;28;20055;-74
2021/12/18 05:40:54;;;;;;;29.67;12.00;;;;;;;;;;4973060;28;20129;-74
2021/12/18 05:43:20;;;;;;;26.20;11.57;;;;;;;;;;4973074;28;20061;-74
2021/12/18 05:45:46;;;;;;;26.80;12.40;;;;;;;;;;4972983;28;20031;-75
2021/12/18 05:48:12;;;;;;;25.47;11.23;;;;;;;;;;4972903;28;20033;-73
2021/12/18 05:50:38;;;;;;;27.40;10.73;;;;;;;;;;4987846;28;20379;-73
2021/12/18 05:53:03;;;;;;;25.00;10.30;;;;;;;;;;4971656;28;20491;-74
2021/12/18 05:55:30;;;;;;;28.63;11.30;;;;;;;;;;4972855;28;20483;-73
2021/12/18 05:57:55;;;;;;;24.57;10.53;;;;;;;;;;4971284;28;20031;-73
2021/12/18 06:00:22;;;;;;;22.20;9.53;;;;;;;;;;4973151;28;20093;-73
2021/12/18 06:02:48;;;;;;;34.27;10.83;;;;;;;;;;4971559;28;20038;-73
2021/12/18 06:05:14;;;;;;;28.33;10.50;;;;;;;;;;4972820;28;20035;-74
2021/12/18 06:07:57;;;;;;;25.40;10.73;;;;;;;;;;4972557;28;20030;-74
2021/12/18 06:10:28;;;;;;;26.80;11.57;;;;;;;;;;4972644;28;20487;-74
2021/12/18 06:12:57;;;;;;;24.25;10.45;;;;;;;;;;4971153;28;20058;-73
2021/12/18 06:15:22;;;;;;;23.30;10.63;;;;;;;;;;4972675;28;20387;-73
2021/12/18 06:17:48;;;;;;;28.40;10.40;;;;;;;;;;4971186;28;20023;-73
2021/12/18 06:20:14;;;;;;;26.60;10.57;;;;;;;;;;4971418;28;20050;-73
2021/12/18 06:22:39;;;;;;;23.27;9.77;;;;;;;;;;4971097;28;20043;-72
2021/12/18 06:25:05;;;;;;;21.10;10.43;;;;;;;;;;4971106;28;20035;-72
2021/12/18 06:27:31;;;;;;;30.23;12.50;;;;;;;;;;4972400;28;20054;-74
2021/12/18 06:29:57;;;;;;;24.60;11.30;;;;;;;;;;4987068;28;20483;-74
2021/12/18 06:32:23;;;;;;;20.97;9.83;;;;;;;;;;4973919;28;20046;-74
2021/12/18 06:34:49;;;;;;;27.43;12.70;;;;;;;;;;4972573;28;20081;-75
2021/12/18 06:37:14;;;;;;;28.57;12.83;;;;;;;;;;4988652;28;20067;-73
2021/12/18 06:39:40;;;;;;;32.83;11.53;;;;;;;;;;4973911;28;20057;-73
2021/12/18 06:42:06;;;;;;;32.43;12.13;;;;;;;;;;4989589;28;20166;-72
2021/12/18 06:44:31;;;;;;;30.10;13.43;;;;;;;;;;4973130;28;20073;-74
2021/12/18 06:46:57;;;;;;;28.77;10.73;;;;;;;;;;4986700;28;20037;-74
2021/12/18 06:49:23;;;;;;;28.50;11.73;;;;;;;;;;4971790;28;20177;-74
2021/12/18 06:51:48;;;;;;;29.93;10.77;;;;;;;;;;4970503;28;20426;-74
2021/12/18 06:54:14;;;;;;;25.17;11.77;;;;;;;;;;4986588;28;20059;-75
2021/12/18 06:56:39;;;;;;;31.97;13.03;;;;;;;;;;4970341;28;20564;-74
2021/12/18 06:59:05;;;;;;;30.40;11.97;;;;;;;;;;4971609;28;20038;-74
2021/12/18 07:01:30;;;;;;;31.37;12.03;;;;;;;;;;4970617;28;20086;-74
2021/12/18 07:03:56;;;;;;;28.53;10.77;;;;;;;;;;4970107;28;20359;-73
2021/12/18 07:06:21;;;;;;;34.27;11.83;;;;;;;;;;4971674;28;20499;-73
2021/12/18 07:08:47;;;;;;;23.40;10.37;;;;;;;;;;4971457;28;20423;-72
2021/12/18 07:11:13;;;;;;;29.10;11.57;;;;;;;;;;4970035;28;20068;-75
2021/12/18 07:13:39;;;;;;;28.57;13.30;;;;;;;;;;4970399;28;20069;-75
2021/12/18 07:16:05;;;;;;;24.43;10.30;;;;;;;;;;4971428;28;20039;-74
2021/12/18 07:18:30;;;;;;;24.67;10.70;;;;;;;;;;4971599;28;20113;-74
2021/12/18 07:20:58;;;;;;;33.33;12.40;;;;;;;;;;4971378;28;20150;-73
2021/12/18 07:23:24;;;;;;;39.33;12.50;;;;;;;;;;4972202;28;20105;-74
2021/12/18 07:25:50;;;;;;;24.30;10.63;;;;;;;;;;4986364;28;20042;-74
2021/12/18 07:28:16;;;;;;;32.30;12.43;;;;;;;;;;4971409;28;20035;-74
2021/12/18 07:30:41;;;;;;;29.53;11.10;;;;;;;;;;4971475;28;20084;-72
2021/12/18 07:33:10;;;;;;;26.33;10.40;;;;;;;;;;4974059;28;20053;-73
2021/12/18 07:35:40;;;;;;;28.43;10.60;;;;;;;;;;4986898;28;20432;-73
2021/12/18 07:38:06;;;;;;;30.73;11.57;;;;;;;;;;4970779;28;20058;-74
2021/12/18 07:40:33;;;;;;;30.30;10.63;;;;;;;;;;4969930;28;20509;-73
2021/12/18 07:42:59;;;;;;;32.80;13.07;;;;;;;;;;4971455;28;20035;-73
2021/12/18 07:45:25;;;;;;;30.10;11.67;;;;;;;;;;4986323;28;20085;-74
2021/12/18 07:47:51;;;;;;;24.33;11.33;;;;;;;;;;4969748;28;20030;-74
2021/12/18 07:50:20;;;;;;;30.97;12.43;;;;;;;;;;4971523;28;20037;-74
2021/12/18 07:52:49;;;;;;;27.37;11.67;;;;;;;;;;4971239;28;20114;-74
2021/12/18 07:55:15;;;;;;;28.10;10.97;;;;;;;;;;4968752;28;20048;-73
2021/12/18 07:57:40;;;;;;;28.77;12.23;;;;;;;;;;4970893;28;20050;-74
2021/12/18 08:00:10;;;;;;;22.57;11.73;;;;;;;;;;4969369;28;20071;-73
2021/12/18 08:02:35;;;;;;;27.90;12.83;;;;;;;;;;4969458;28;20030;-74
2021/12/18 08:05:03;;;;;;;39.23;24.17;;;;;;;;;;4969198;28;20133;-73
2021/12/18 08:07:28;;;;;;;32.80;15.03;;;;;;;;;;4969428;28;20065;-74
2021/12/18 08:09:54;;;;;;;27.77;11.47;;;;;;;;;;4969475;28;20063;-74
2021/12/18 08:12:19;;;;;;;26.07;12.00;;;;;;;;;;4971026;28;20085;-75
2021/12/18 08:14:45;;;;;;;34.43;12.77;;;;;;;;;;4970645;28;20065;-73
2021/12/18 08:17:10;;;;;;;30.27;11.83;;;;;;;;;;4970607;28;20113;-74
2021/12/18 08:19:36;;;;;;;34.63;12.67;;;;;;;;;;4985826;28;20035;-74
2021/12/18 08:22:02;;;;;;;24.57;11.63;;;;;;;;;;4985162;28;20367;-75
2021/12/18 08:24:28;;;;;;;33.33;13.03;;;;;;;;;;4970678;28;20537;-73
2021/12/18 08:26:53;;;;;;;28.30;13.40;;;;;;;;;;4970982;28;20026;-75
2021/12/18 08:29:19;;;;;;;37.30;12.57;;;;;;;;;;4970767;28;20038;-74
2021/12/18 08:31:45;;;;;;;37.00;12.90;;;;;;;;;;4971043;28;20059;-74
2021/12/18 08:34:11;;;;;;;29.67;12.93;;;;;;;;;;4969143;28;20578;-73
2021/12/18 08:36:37;;;;;;;39.23;13.87;;;;;;;;;;4969500;28;20027;-73
2021/12/18 08:39:03;;;;;;;28.97;12.80;;;;;;;;;;4968817;28;20483;-73
2021/12/18 08:41:29;;;;;;;30.77;13.90;;;;;;;;;;4970496;28;20085;-73
2021/12/18 08:43:55;;;;;;;36.67;13.60;;;;;;;;;;4970231;28;20216;-73
2021/12/18 08:46:21;;;;;;;28.37;13.00;;;;;;;;;;4970285;28;20362;-75
2021/12/18 08:48:47;;;;;;;32.93;13.87;;;;;;;;;;4970475;28;20045;-75
2021/12/18 08:51:12;;;;;;;38.00;15.90;;;;;;;;;;4970494;28;20031;-73
2021/12/18 08:53:38;;;;;;;29.27;13.83;;;;;;;;;;4971435;28;20034;-72
2021/12/18 08:56:05;;;;;;;30.23;13.63;;;;;;;;;;4970033;28;20563;-73
2021/12/18 08:58:31;;;;;;;30.20;13.20;;;;;;;;;;4971560;28;20069;-73
2021/12/18 09:00:57;;;;;;;30.43;12.10;;;;;;;;;;4970624;28;20054;-73
2021/12/18 09:03:23;;;;;;;33.13;12.80;;;;;;;;;;4971185;28;20027;-74
2021/12/18 09:05:49;;;;;;;22.83;11.83;;;;;;;;;;4972470;28;20057;-74
2021/12/18 09:08:14;;;;;;;26.43;11.40;;;;;;;;;;4975301;28;20229;-76
2021/12/18 09:10:40;;;;;;;22.17;10.27;;;;;;;;;;4973965;28;20073;-74
2021/12/18 09:13:05;;;;;;;26.47;11.03;;;;;;;;;;4972709;28;20112;-75
2021/12/18 09:15:31;;;;;;;24.93;10.83;;;;;;;;;;4988874;28;20089;-74
2021/12/18 09:17:57;;;;;;;20.83;9.70;;;;;;;;;;4989892;28;20037;-74
2021/12/18 09:20:22;;;;;;;26.83;10.77;;;;;;;;;;4972441;28;20031;-74
2021/12/18 09:22:48;;;;;;;21.90;10.03;;;;;;;;;;4972333;28;20038;-74
2021/12/18 09:25:14;;;;;;;21.23;9.40;;;;;;;;;;4973601;28;20031;-73
2021/12/18 09:27:40;;;;;;;22.93;10.87;;;;;;;;;;4972307;28;20023;-73
2021/12/18 09:30:12;;;;;;;22.03;10.60;;;;;;;;;;4974151;28;20532;-74
2021/12/18 09:32:39;;;;;;;21.53;10.13;;;;;;;;;;4973691;28;20031;-75
2021/12/18 09:35:06;;;;;;;26.80;9.83;;;;;;;;;;4989198;28;20523;-73
2021/12/18 09:37:31;;;;;;;25.80;10.67;;;;;;;;;;4974572;28;20046;-74
2021/12/18 09:39:57;;;;;;;20.63;9.47;;;;;;;;;;4973538;28;20062;-73
2021/12/18 09:42:23;;;;;;;23.73;10.10;;;;;;;;;;4972155;28;20031;-73
2021/12/18 09:44:51;;;;;;;21.23;9.97;;;;;;;;;;4973237;28;20089;-75
2021/12/18 09:47:19;;;;;;;20.57;9.63;;;;;;;;;;4988181;28;20402;-74
2021/12/18 09:49:45;;;;;;;21.07;9.80;;;;;;;;;;4973478;28;20065;-74
2021/12/18 09:52:13;;;;;;;20.03;9.10;;;;;;;;;;4971670;28;20054;-74
2021/12/18 09:54:39;;;;;;;18.37;8.63;;;;;;;;;;4972415;28;20058;-75
2021/12/18 09:57:05;;;;;;;22.53;9.97;;;;;;;;;;4971965;28;20034;-74
2021/12/18 09:59:30;;;;;;;22.63;10.60;;;;;;;;;;4971903;28;20042;-76
2021/12/18 10:01:56;;;;;;;20.80;9.30;;;;;;;;;;4972976;28;20085;-75
2021/12/18 10:04:39;;;;;;;21.63;10.73;;;;;;;;;;4972492;28;20038;-73
2021/12/18 10:07:20;;;;;;;20.43;9.83;;;;;;;;;;4971293;28;20031;-74
2021/12/18 10:09:47;;;;;;;19.37;10.03;;;;;;;;;;4971090;28;20031;-74
2021/12/18 10:12:26;;;;;;;32.77;10.53;;;;;;;;;;4971220;28;20035;-75
2021/12/18 10:14:55;;;;;;;19.93;9.03;;;;;;;;;;4973041;28;20101;-74
2021/12/18 10:17:31;;;;;;;22.33;9.70;;;;;;;;;;4970585;28;20023;-74
2021/12/18 10:20:23;;;;;;;20.03;8.13;;;;;;;;;;4970710;28;20026;-74
2021/12/18 10:22:54;;;;;;;21.27;8.40;;;;;;;;;;4972327;28;20039;-74
2021/12/18 10:25:31;;;;;;;20.60;8.90;;;;;;;;;;4971086;28;20030;-74
2021/12/18 10:28:13;;;;;;;14.53;7.70;;;;;;;;;;4972112;28;20485;-73
2021/12/18 10:30:58;;;;;;;19.10;8.82;;;;;;;;;;4971399;28;20505;-76
2021/12/18 10:33:28;;;;;;;21.47;9.90;;;;;;;;;;4971272;28;20122;-73
2021/12/18 10:35:57;;;;;;;22.53;10.10;;;;;;;;;;4972480;28;20550;-74
2021/12/18 10:38:43;;;;;;;18.67;8.73;;;;;;;;;;4972362;28;20078;-73
2021/12/18 10:41:30;;;;;;;22.07;9.43;;;;;;;;;;4972200;28;20039;-74
2021/12/18 10:44:03;;;;;;;18.23;8.57;;;;;;;;;;4972068;28;20081;-74
2021/12/18 10:46:30;;;;;;;21.00;9.60;;;;;;;;;;4972141;28;20487;-74
2021/12/18 10:49:02;;;;;;;18.90;8.57;;;;;;;;;;4971184;28;20042;-74
2021/12/18 10:51:30;;;;;;;20.55;8.50;;;;;;;;;;4972350;28;20054;-75
2021/12/18 10:54:18;;;;;;;23.13;9.47;;;;;;;;;;4972265;28;20034;-74
2021/12/18 10:56:46;;;;;;;25.40;8.80;;;;;;;;;;4970809;28;20055;-74
2021/12/18 10:59:45;;;;;;;24.17;10.13;;;;;;;;;;4970311;28;20037;-74
2021/12/18 11:02:13;;;;;;;22.67;9.23;;;;;;;;;;4971022;28;20039;-74
2021/12/18 11:04:43;;;;;;;20.60;9.10;;;;;;;;;;4971329;28;20182;-76
2021/12/18 11:07:33;;;;;;;20.33;9.40;;;;;;;;;;4970457;28;20077;-74
2021/12/18 11:10:39;;;;;;;19.97;8.90;;;;;;;;;;4972998;28;20035;-73
2021/12/18 11:15:48;;;;;;;19.77;8.80;;;;;;;;;;4972289;28;20096;-74
2021/12/18 11:18:14;;;;;;;22.63;9.20;;;;;;;;;;4971867;28;20126;-76
2021/12/18 11:20:42;;;;;;;21.47;9.27;;;;;;;;;;4970765;28;20031;-75
2021/12/18 11:23:11;;;;;;;17.63;7.80;;;;;;;;;;4970944;28;20030;-76
2021/12/18 11:25:39;;;;;;;20.07;8.90;;;;;;;;;;4971006;28;20033;-75
2021/12/18 11:28:07;;;;;;;21.03;9.67;;;;;;;;;;4970630;28;20035;-75
2021/12/18 11:30:34;;;;;;;21.23;8.83;;;;;;;;;;4970217;28;20054;-76
2021/12/18 11:33:00;;;;;;;17.27;8.40;;;;;;;;;;4970461;28;20023;-74
2021/12/18 11:35:27;;;;;;;17.73;7.97;;;;;;;;;;4954892;28;20509;-75
2021/12/18 11:38:07;;;;;;;17.10;8.83;;;;;;;;;;4971740;28;20097;-74
2021/12/18 11:40:38;;;;;;;22.97;9.43;;;;;;;;;;4971025;28;20050;-76
2021/12/18 11:43:08;;;;;;;18.30;8.53;;;;;;;;;;4955585;28;20022;-76
2021/12/18 11:45:37;;;;;;;19.70;8.73;;;;;;;;;;4973396;28;20152;-76
2021/12/18 11:48:04;;;;;;;18.33;8.63;;;;;;;;;;4971795;28;20054;-75
2021/12/18 11:50:36;;;;;;;23.97;9.63;;;;;;;;;;4971096;28;20026;-74
2021/12/18 11:53:13;;;;;;;17.88;8.27;;;;;;;;;;4972940;28;20019;-77
2021/12/18 11:55:52;;;;;;;18.87;8.70;;;;;;;;;;4971821;28;20042;-77
2021/12/18 11:58:30;;;;;;;19.47;9.30;;;;;;;;;;4970128;28;20027;-76
2021/12/18 12:01:21;;;;;;;22.57;9.60;;;;;;;;;;4970061;28;20034;-76
2021/12/18 12:03:50;;;;;;;18.03;7.97;;;;;;;;;;4982941;28;20646;-76
2021/12/18 12:06:32;;;;;;;19.13;8.83;;;;;;;;;;4969400;28;20026;-76
2021/12/18 12:09:13;;;;;;;;;;;;;;;;;;4970645;28;20057;-75
2021/12/18 12:12:09;;;;;;;21.43;8.30;;;;;;;;;;4969571;28;19937;-76
2021/12/18 12:14:37;;;;;;;18.03;9.37;;;;;;;;;;4969163;28;20454;-74
2021/12/18 12:17:08;;;;;;;15.80;8.00;;;;;;;;;;4970382;28;20479;-74
2021/12/18 12:19:33;;;;;;;20.73;8.73;;;;;;;;;;4968911;28;20066;-75
2021/12/18 12:22:00;;;;;;;18.77;8.13;;;;;;;;;;4969112;28;20066;-73
2021/12/18 12:24:32;;;;;;;16.80;8.13;;;;;;;;;;4968680;28;20074;-74
2021/12/18 12:27:16;;;;;;;;;;;;;;;;;;4969525;28;20030;-73
2021/12/18 12:29:46;;;;;;;22.23;8.83;;;;;;;;;;4970437;28;20285;-75
2021/12/18 12:32:12;;;;;;;16.07;7.87;;;;;;;;;;4969991;28;20044;-74
2021/12/18 12:34:40;;;;;;;16.13;7.20;;;;;;;;;;4968907;28;20027;-74
2021/12/18 12:37:23;;;;;;;15.93;7.87;;;;;;;;;;4969987;28;20034;-74
2021/12/18 12:40:02;;;;;;;18.93;8.40;;;;;;;;;;4968753;28;20059;-74
2021/12/18 12:42:28;;;;;;;19.87;7.70;;;;;;;;;;4971283;28;20372;-76
2021/12/18 12:45:12;;;;;;;14.40;7.17;;;;;;;;;;4972830;28;20062;-75
2021/12/18 12:47:38;;;;;;;19.70;8.53;;;;;;;;;;4973564;28;20145;-73
2021/12/18 12:50:13;;;;;;;17.50;8.43;;;;;;;;;;4973901;28;20031;-75
2021/12/18 12:52:56;;;;;;;18.20;8.23;;;;;;;;;;4973904;28;20042;-75
2021/12/18 12:55:28;;;;;;;17.00;8.27;;;;;;;;;;4973490;28;20416;-74
2021/12/18 12:58:01;;;;;;;19.63;7.97;;;;;;;;;;4973631;28;20034;-73
2021/12/18 13:00:27;;;;;;;17.07;8.23;;;;;;;;;;4973468;28;20038;-75
2021/12/18 13:02:57;;;;;;;17.40;7.67;;;;;;;;;;4971860;28;20057;-74
2021/12/18 13:05:25;;;;;;;17.27;7.57;;;;;;;;;;4971938;28;20027;-73
2021/12/18 13:08:01;;;;;;;19.80;8.53;;;;;;;;;;4972442;28;20122;-74
2021/12/18 13:10:35;;;;;;;14.57;7.67;;;;;;;;;;4972011;28;20469;-73
2021/12/18 13:13:07;;;;;;;14.47;6.73;;;;;;;;;;4972023;28;20454;-75
2021/12/18 13:15:47;;;;;;;18.38;8.63;;;;;;;;;;4973221;28;20491;-74
2021/12/18 13:18:13;;;;;;;17.47;7.27;;;;;;;;;;4973319;28;20367;-74
2021/12/18 13:21:01;;;;;;;13.73;7.20;;;;;;;;;;4972151;28;20434;-74
2021/12/18 13:23:37;;;;;;;17.83;8.77;;;;;;;;;;4972599;28;20444;-74
2021/12/18 13:26:05;;;;;;;16.63;8.77;;;;;;;;;;4973130;28;20506;-75
2021/12/18 13:28:30;;;;;;;22.03;9.43;;;;;;;;;;4973184;28;20042;-74
2021/12/18 13:30:56;;;;;;;15.50;7.77;;;;;;;;;;4973180;28;20079;-75
2021/12/18 13:33:28;;;;;;;18.73;8.30;;;;;;;;;;4971138;28;20058;-74
2021/12/18 13:35:57;;;;;;;18.20;8.38;;;;;;;;;;4971380;28;20033;-74
2021/12/18 13:38:25;;;;;;;20.70;8.23;;;;;;;;;;4972539;28;20414;-75
2021/12/18 13:40:51;;;;;;;17.90;8.30;;;;;;;;;;4973147;28;20121;-75
2021/12/18 13:43:22;;;;;;;17.77;8.03;;;;;;;;;;4972942;28;20495;-74
2021/12/18 13:46:12;;;;;;;14.13;6.27;;;;;;;;;;4973351;28;20125;-74
2021/12/18 13:48:47;;;;;;;14.63;7.47;;;;;;;;;;4973064;28;20031;-75
2021/12/18 13:51:22;;;;;;;20.00;9.00;;;;;;;;;;4971308;28;20031;-74
2021/12/18 13:54:03;;;;;;;13.73;7.03;;;;;;;;;;4971257;28;20050;-75
2021/12/18 13:56:38;;;;;;;20.37;8.30;;;;;;;;;;4972704;28;20054;-74
2021/12/18 13:59:18;;;;;;;17.47;7.27;;;;;;;;;;4971615;28;20045;-73
2021/12/18 14:01:44;;;;;;;14.30;7.23;;;;;;;;;;4973297;28;20065;-74
2021/12/18 14:04:16;;;;;;;20.10;8.00;;;;;;;;;;4971395;28;20394;-74
2021/12/18 14:06:46;;;;;;;14.10;7.40;;;;;;;;;;4971516;28;20034;-73
2021/12/18 14:09:23;;;;;;;17.53;6.63;;;;;;;;;;4972200;28;20027;-74
2021/12/18 14:11:58;;;;;;;16.93;8.43;;;;;;;;;;4973712;28;20031;-74
2021/12/18 14:14:42;;;;;;;13.57;6.60;;;;;;;;;;4971912;28;20074;-74
2021/12/18 14:17:13;;;;;;;14.50;7.00;;;;;;;;;;4971748;28;20030;-74
2021/12/18 14:19:43;;;;;;;19.40;6.30;;;;;;;;;;4971836;28;20022;-75
2021/12/18 14:22:09;;;;;;;14.30;7.00;;;;;;;;;;4972848;28;20026;-74
2021/12/18 14:24:36;;;;;;;13.43;6.50;;;;;;;;;;4972896;28;20044;-74
2021/12/18 14:27:12;;;;;;;16.67;7.77;;;;;;;;;;4973103;28;20403;-75
2021/12/18 14:29:50;;;;;;;13.27;6.47;;;;;;;;;;4987747;28;20034;-74
2021/12/18 14:32:16;;;;;;;16.80;7.63;;;;;;;;;;4971505;28;20027;-76
2021/12/18 14:34:43;;;;;;;16.30;6.83;;;;;;;;;;4973060;28;20056;-74
2021/12/18 14:37:14;;;;;;;16.63;7.37;;;;;;;;;;4971502;28;20022;-75
2021/12/18 14:39:42;;;;;;;15.03;8.00;;;;;;;;;;4972666;28;20058;-74
2021/12/18 14:42:14;;;;;;;15.83;7.20;;;;;;;;;;4973197;28;20073;-73
2021/12/18 14:44:49;;;;;;;16.35;7.95;;;;;;;;;;4972903;28;20053;-74
2021/12/18 14:47:20;;;;;;;19.10;8.10;;;;;;;;;;4971335;28;20041;-73
2021/12/18 14:50:11;;;;;;;16.93;6.97;;;;;;;;;;4971309;28;20027;-74
2021/12/18 14:52:52;;;;;;;17.13;7.57;;;;;;;;;;4973227;28;20027;-74
2021/12/18 14:55:23;;;;;;;15.35;7.35;;;;;;;;;;4971449;28;20443;-73
2021/12/18 14:58:02;;;;;;;16.73;8.13;;;;;;;;;;4971479;28;20401;-76
2021/12/18 15:00:29;;;;;;;17.40;7.23;;;;;;;;;;4974652;28;20085;-75
2021/12/18 15:03:01;;;;;;;13.67;7.57;;;;;;;;;;4972931;28;20034;-74
2021/12/18 15:05:41;;;;;;;23.17;13.70;;;;;;;;;;4970524;28;20030;-75
2021/12/18 15:08:12;;;;;;;17.67;7.57;;;;;;;;;;4972785;28;20026;-74
2021/12/18 15:10:59;;;;;;;19.73;8.03;;;;;;;;;;4972752;28;20030;-75
2021/12/18 15:13:27;;;;;;;13.37;7.07;;;;;;;;;;4972014;28;20106;-74
2021/12/18 15:16:06;;;;;;;14.00;7.20;;;;;;;;;;4971323;28;20030;-75
2021/12/18 15:18:33;;;;;;;18.97;8.13;;;;;;;;;;4970732;28;20114;-75
2021/12/18 15:20:58;;;;;;;22.33;9.47;;;;;;;;;;4971219;28;20423;-74